Terminal Aerodrome Forecast
Issued by NWS

Home | Current Version | Previous Version | Text Only | Print | Product List | Glossary On
Versions: 1 2 3 4 5 6 7 8 9 10 11 12 13 14 15
914
FTUS41 KLWX 111732
TAFMTN
TAF
KMTN 111732Z 1118/1218 28017G27KT P6SM BKN050
     FM120000 29012G20KT P6SM FEW250
     FM120600 29009KT P6SM SKC
     FM121000 28005KT P6SM SCT140
     FM121500 24005KT P6SM BKN100=

USA.gov is the U.S. government's official web portal to all federal, state and local government web resources and services.